NCAR-RAP Real-Time Weather Data

Output produced by METARs form (18 August 2018  01:02 UTC)
found at http://weather.rap.ucar.edu/surface/
 
RJEC 180000Z 35005KT 310V030 9999 FEW015 SCT030 BKN050 14/10 Q1013
RJEC 172300Z VRB02KT 9999 FEW010 BKN050 13/10 Q1012
RJEC 172200Z VRB01KT 9999 FEW001 BKN050 12/10 Q1012
RJEC 172140Z VRB01KT 9999 FEW001 BKN050 12/11 Q1012 RMK 1ST001 6CU050 A2991
RJEC 171100Z 36007KT 9999 FEW015 SCT030 12/10 Q1011
RJEC 171000Z 35008KT 9999 FEW020 BKN030 13/11 Q1010
RJEC 170900Z 36012KT 9999 FEW020 SCT030 BKN045 14/10 Q1009
RJEC 170800Z 36013KT 9999 FEW020 SCT030 BKN045 15/11 Q1009
RJEC 170700Z 01013KT 9999 FEW020 SCT035 BKN045 15/11 Q1009
RJEC 170600Z 36013KT 9999 FEW015 SCT020 BKN035 17/11 Q1008
RJEC 170500Z 34013KT 9999 VCSH FEW015 SCT020 BKN035 15/11 Q1009
RJEC 170400Z 33015KT 9999 VCSH FEW015 SCT020 BKN035 15/12 Q1008
RJEC 170300Z 34015KT 9999 FEW015 SCT020 BKN035 16/13 Q1007
RJEC 170200Z 01008KT 330V050 9999 -SHRA FEW010 SCT015 BKN020 15/13 Q1007
RJEC 170100Z 34012KT 9999 VCSH FEW008 SCT015 BKN030 14/12 Q1007
RJEC 170000Z 33012KT 9999 VCSH FEW010 SCT015 BKN025 14/11 Q1007
RJEC 162300Z 34013KT 9999 FEW007 SCT012 BKN100 14/11 Q1006
RJEC 162200Z 34011KT 9999 -SHRA FEW001 SCT008 BKN070 12/12 Q1006
RJEC 162140Z 34012KT 9999 -SHRA FEW001 SCT008 BKN070 12/11 Q1006 RMK 1ST001 3ST008 6AC070 A2971
RJEC 161100Z 02010KT 9999 -SHRA FEW005 SCT050 BKN060 13/11 Q1003
RJEC 161000Z 36014KT 9999 -SHRA FEW005 SCT060 BKN100 13/11 Q1003
RJEC 160900Z 36012KT 9999 -SHRA FEW002 SCT015 BKN070 13/12 Q1003
RJEC 160845Z 01012KT 9999 -SHRA FEW002 SCT015 BKN070 13/12 Q1003 RMK 1ST002 3ST015 5AC070 A2964
RJEC 160800Z 01012KT 8000 SHRA FEW002 SCT015 BKN070 14/12 Q1004
RJEC 160700Z 01013KT 7000 SHRA FEW002 SCT007 BKN050 14/13 Q1003
RJEC 160632Z 36015KT 7000 SHRA FEW002 SCT007 BKN050 14/13 Q1003 RMK 1ST002 3ST007 7CU050 A2963
RJEC 160600Z 36014KT 7000 -SHRA FEW001 SCT005 BKN035 14/13 Q1003
RJEC 160539Z 35018KT 7000 -SHRA FEW001 SCT005 BKN035 14/13 Q1003 RMK 1ST001 3ST005 6CU035 A2963
RJEC 160500Z 02008KT 7000 -SHRA FEW003 SCT015 BKN030 15/14 Q1003
RJEC 160433Z 02009KT 6000 SHRA FEW003 SCT015 BKN030 16/14 Q1003 RMK 1ST003 3ST015 5CU030 A2964
RJEC 160400Z 34007KT 8000 -SHRA FEW008 BKN030 BKN060 16/15 Q1004
RJEC 160300Z 32007KT 8000 -SHRA FEW004 SCT025 BKN050 16/16 Q1004
RJEC 160214Z 36007KT 8000 FEW003 SCT004 BKN016 16/16 Q1005 RMK 2ST003 4ST004 7ST016 A2968
RJEC 160200Z 35007KT 6000 -SHRA FEW002 SCT003 BKN004 16/16 Q1005
RJEC 160140Z 36006KT 5000 -SHRA BR FEW002 SCT003 BKN004 16/16 Q1005 RMK 1ST002 4ST003 6ST004 A2970
RJEC 160123Z 36007KT 3200 -SHRA BR FEW002 BKN003 BKN004 16/16 Q1006 RMK 2ST002 5ST003 6ST004 A2971
RJEC 160110Z 35008KT 2500 SHRA BR FEW002 BKN003 BKN004 16/15 Q1006 RMK 2ST002 5ST003 6ST004 A2971
RJEC 160100Z 33005KT 3000 -SHRA BR FEW002 BKN003 BKN004 16/16 Q1006
RJEC 160029Z 32004KT 4000 -SHRA BR FEW002 SCT003 BKN004 16/15 Q1006 RMK 1ST002 4ST003 6ST004 A2972
RJEC 160000Z 34005KT 4900 -SHRA BR FEW002 BKN003 BKN004 16/15 Q1006
RJEC 152346Z 35005KT 5000 -SHRA BR FEW002 BKN003 BKN004 15/15 Q1006 RMK 2ST002 6ST003 7ST004 A2973
RJEC 152300Z 36006KT 4000 -SHRA BR FEW002 BKN003 BKN005 15/15 Q1007
RJEC 152241Z 34004KT 3200 SHRA BR FEW002 BKN003 BKN005 16/15 Q1007 RMK 2ST002 5ST003 6ST005 A2975
RJEC 152221Z VRB02KT 3100 SHRA BR FEW002 BKN003 BKN013 15/15 Q1007 RMK 1ST002 5ST003 7ST013 A2976
RJEC 152215Z 32003KT 280V350 4900 -SHRA BR FEW002 SCT009 BKN013 15/15 Q1007 RMK 1ST002 4ST009 7ST013 A2976
RJEC 152200Z 33004KT 7000 -SHRA FEW002 SCT003 BKN009 15/15 Q1008
RJEC 152140Z 35005KT 7000 FEW002 SCT003 BKN009 15/15 Q1008 RMK 1ST002 3ST003 7ST009 A2977